sensor_id;sensor_type;location;lat;lon;timestamp;P1;durP1;ratioP1;P2;durP2;ratioP2
64244;SDS011;50584;29.058;-110.966;2023-09-18T00:00:21;2.47;;;1.10;;
64244;SDS011;50584;29.058;-110.966;2023-09-18T00:02:47;1.60;;;1.50;;
64244;SDS011;50584;29.058;-110.966;2023-09-18T00:05:13;1.88;;;1.15;;
64244;SDS011;50584;29.058;-110.966;2023-09-18T00:07:44;5.07;;;1.50;;
64244;SDS011;50584;29.058;-110.966;2023-09-18T00:10:10;1.50;;;1.30;;
64244;SDS011;50584;29.058;-110.966;2023-09-18T00:12:37;1.63;;;1.02;;
64244;SDS011;50584;29.058;-110.966;2023-09-18T00:15:04;1.10;;;1.10;;
64244;SDS011;50584;29.058;-110.966;2023-09-18T00:17:30;2.47;;;1.10;;
64244;SDS011;50584;29.058;-110.966;2023-09-18T00:19:56;3.92;;;1.13;;
64244;SDS011;50584;29.058;-110.966;2023-09-18T00:22:22;3.67;;;1.33;;
64244;SDS011;50584;29.058;-110.966;2023-09-18T00:24:49;4.22;;;1.23;;
64244;SDS011;50584;29.058;-110.966;2023-09-18T00:27:15;1.90;;;1.35;;
64244;SDS011;50584;29.058;-110.966;2023-09-18T00:29:42;4.05;;;1.10;;
64244;SDS011;50584;29.058;-110.966;2023-09-18T00:32:08;4.90;;;1.40;;
64244;SDS011;50584;29.058;-110.966;2023-09-18T00:34:33;4.32;;;1.00;;
64244;SDS011;50584;29.058;-110.966;2023-09-18T00:36:59;2.38;;;1.15;;
64244;SDS011;50584;29.058;-110.966;2023-09-18T00:39:25;6.20;;;1.40;;
64244;SDS011;50584;29.058;-110.966;2023-09-18T00:41:51;4.35;;;1.30;;
64244;SDS011;50584;29.058;-110.966;2023-09-18T00:44:19;4.72;;;1.58;;
64244;SDS011;50584;29.058;-110.966;2023-09-18T00:46:46;5.57;;;1.40;;
64244;SDS011;50584;29.058;-110.966;2023-09-18T00:49:12;4.80;;;1.20;;
64244;SDS011;50584;29.058;-110.966;2023-09-18T00:51:39;2.80;;;1.42;;
64244;SDS011;50584;29.058;-110.966;2023-09-18T00:54:05;1.08;;;1.00;;
64244;SDS011;50584;29.058;-110.966;2023-09-18T00:56:32;3.80;;;1.00;;
64244;SDS011;50584;29.058;-110.966;2023-09-18T00:58:58;4.50;;;1.27;;
64244;SDS011;50584;29.058;-110.966;2023-09-18T01:01:24;2.83;;;1.00;;
64244;SDS011;50584;29.058;-110.966;2023-09-18T01:03:50;3.75;;;1.17;;
64244;SDS011;50584;29.058;-110.966;2023-09-18T01:06:18;2.00;;;1.00;;
64244;SDS011;50584;29.058;-110.966;2023-09-18T01:08:45;1.13;;;1.13;;
64244;SDS011;50584;29.058;-110.966;2023-09-18T01:16:27;10.40;;;1.88;;
64244;SDS011;50584;29.058;-110.966;2023-09-18T01:18:56;4.97;;;1.20;;
64244;SDS011;50584;29.058;-110.966;2023-09-18T01:21:22;1.83;;;1.23;;
64244;SDS011;50584;29.058;-110.966;2023-09-18T01:23:48;4.65;;;1.20;;
64244;SDS011;50584;29.058;-110.966;2023-09-18T01:26:14;6.30;;;1.25;;
64244;SDS011;50584;29.058;-110.966;2023-09-18T01:28:40;2.60;;;1.30;;
64244;SDS011;50584;29.058;-110.966;2023-09-18T01:31:06;2.28;;;1.52;;
64244;SDS011;50584;29.058;-110.966;2023-09-18T01:33:32;16.95;;;2.22;;
64244;SDS011;50584;29.058;-110.966;2023-09-18T01:35:59;4.47;;;1.90;;
64244;SDS011;50584;29.058;-110.966;2023-09-18T01:38:26;13.98;;;2.40;;
64244;SDS011;50584;29.058;-110.966;2023-09-18T01:40:52;19.60;;;2.70;;
64244;SDS011;50584;29.058;-110.966;2023-09-18T01:43:19;11.45;;;4.22;;
64244;SDS011;50584;29.058;-110.966;2023-09-18T01:45:45;14.23;;;4.22;;
64244;SDS011;50584;29.058;-110.966;2023-09-18T01:48:11;9.73;;;3.80;;
64244;SDS011;50584;29.058;-110.966;2023-09-18T01:50:37;12.65;;;4.22;;
64244;SDS011;50584;29.058;-110.966;2023-09-18T01:53:05;20.52;;;4.10;;
64244;SDS011;50584;29.058;-110.966;2023-09-18T01:55:31;21.08;;;4.60;;
64244;SDS011;50584;29.058;-110.966;2023-09-18T01:57:58;23.38;;;14.15;;
64244;SDS011;50584;29.058;-110.966;2023-09-18T02:00:24;35.53;;;20.85;;
64244;SDS011;50584;29.058;-110.966;2023-09-18T02:02:50;14.02;;;3.83;;
64244;SDS011;50584;29.058;-110.966;2023-09-18T02:05:15;37.47;;;3.45;;
64244;SDS011;50584;29.058;-110.966;2023-09-18T02:07:41;11.18;;;3.40;;
64244;SDS011;50584;29.058;-110.966;2023-09-18T02:10:07;10.73;;;3.58;;
64244;SDS011;50584;29.058;-110.966;2023-09-18T02:12:33;8.80;;;2.90;;
64244;SDS011;50584;29.058;-110.966;2023-09-18T02:14:59;12.85;;;3.38;;
64244;SDS011;50584;29.058;-110.966;2023-09-18T02:17:30;17.65;;;3.30;;
64244;SDS011;50584;29.058;-110.966;2023-09-18T02:19:55;9.57;;;3.17;;
64244;SDS011;50584;29.058;-110.966;2023-09-18T02:22:21;11.65;;;2.72;;
64244;SDS011;50584;29.058;-110.966;2023-09-18T02:24:47;5.38;;;2.53;;
64244;SDS011;50584;29.058;-110.966;2023-09-18T02:27:13;10.95;;;2.63;;
64244;SDS011;50584;29.058;-110.966;2023-09-18T02:29:39;7.93;;;2.47;;
64244;SDS011;50584;29.058;-110.966;2023-09-18T02:32:04;7.93;;;2.20;;
64244;SDS011;50584;29.058;-110.966;2023-09-18T02:34:30;8.20;;;2.58;;
64244;SDS011;50584;29.058;-110.966;2023-09-18T02:36:56;8.52;;;2.22;;
64244;SDS011;50584;29.058;-110.966;2023-09-18T02:39:22;5.32;;;2.17;;
64244;SDS011;50584;29.058;-110.966;2023-09-18T02:41:48;9.32;;;2.03;;
64244;SDS011;50584;29.058;-110.966;2023-09-18T02:44:13;8.48;;;2.47;;
64244;SDS011;50584;29.058;-110.966;2023-09-18T02:46:39;8.00;;;1.95;;
64244;SDS011;50584;29.058;-110.966;2023-09-18T02:49:05;9.73;;;2.13;;
64244;SDS011;50584;29.058;-110.966;2023-09-18T02:51:31;12.52;;;2.20;;
64244;SDS011;50584;29.058;-110.966;2023-09-18T02:53:57;13.27;;;2.72;;
64244;SDS011;50584;29.058;-110.966;2023-09-18T02:56:23;14.23;;;2.75;;
64244;SDS011;50584;29.058;-110.966;2023-09-18T02:58:48;9.48;;;2.58;;
64244;SDS011;50584;29.058;-110.966;2023-09-18T03:01:14;17.60;;;2.97;;
64244;SDS011;50584;29.058;-110.966;2023-09-18T03:03:40;9.90;;;2.17;;
64244;SDS011;50584;29.058;-110.966;2023-09-18T03:06:07;9.40;;;2.03;;
64244;SDS011;50584;29.058;-110.966;2023-09-18T03:08:33;6.35;;;2.15;;
64244;SDS011;50584;29.058;-110.966;2023-09-18T03:10:59;2.50;;;1.90;;
64244;SDS011;50584;29.058;-110.966;2023-09-18T03:13:26;13.50;;;1.65;;
64244;SDS011;50584;29.058;-110.966;2023-09-18T03:15:51;10.80;;;2.22;;
64244;SDS011;50584;29.058;-110.966;2023-09-18T03:18:17;6.75;;;2.08;;
64244;SDS011;50584;29.058;-110.966;2023-09-18T03:20:43;9.20;;;2.17;;
64244;SDS011;50584;29.058;-110.966;2023-09-18T03:23:09;11.98;;;2.55;;
64244;SDS011;50584;29.058;-110.966;2023-09-18T03:25:35;18.13;;;2.95;;
64244;SDS011;50584;29.058;-110.966;2023-09-18T03:28:02;7.40;;;2.70;;
64244;SDS011;50584;29.058;-110.966;2023-09-18T03:30:28;14.73;;;2.92;;
64244;SDS011;50584;29.058;-110.966;2023-09-18T03:32:55;19.27;;;3.80;;
64244;SDS011;50584;29.058;-110.966;2023-09-18T03:35:21;8.93;;;3.00;;
64244;SDS011;50584;29.058;-110.966;2023-09-18T03:37:50;10.90;;;2.88;;
64244;SDS011;50584;29.058;-110.966;2023-09-18T03:40:17;15.07;;;3.30;;
64244;SDS011;50584;29.058;-110.966;2023-09-18T03:42:43;18.33;;;3.00;;
64244;SDS011;50584;29.058;-110.966;2023-09-18T03:45:09;10.07;;;2.80;;
64244;SDS011;50584;29.058;-110.966;2023-09-18T03:47:35;10.02;;;2.70;;
64244;SDS011;50584;29.058;-110.966;2023-09-18T03:50:04;10.80;;;2.42;;
64244;SDS011;50584;29.058;-110.966;2023-09-18T03:52:30;8.10;;;2.10;;
64244;SDS011;50584;29.058;-110.966;2023-09-18T03:54:57;5.32;;;1.67;;
64244;SDS011;50584;29.058;-110.966;2023-09-18T03:57:23;11.88;;;2.45;;
64244;SDS011;50584;29.058;-110.966;2023-09-18T03:59:49;13.65;;;2.15;;
64244;SDS011;50584;29.058;-110.966;2023-09-18T04:02:15;14.02;;;2.13;;
64244;SDS011;50584;29.058;-110.966;2023-09-18T04:04:41;16.42;;;3.22;;
64244;SDS011;50584;29.058;-110.966;2023-09-18T04:07:07;12.00;;;1.95;;
64244;SDS011;50584;29.058;-110.966;2023-09-18T04:09:33;10.02;;;1.77;;
64244;SDS011;50584;29.058;-110.966;2023-09-18T04:12:02;3.08;;;1.95;;
64244;SDS011;50584;29.058;-110.966;2023-09-18T04:14:28;11.35;;;1.83;;
64244;SDS011;50584;29.058;-110.966;2023-09-18T04:16:53;7.63;;;1.85;;
64244;SDS011;50584;29.058;-110.966;2023-09-18T04:19:19;3.13;;;1.73;;
64244;SDS011;50584;29.058;-110.966;2023-09-18T04:21:45;10.85;;;1.50;;
64244;SDS011;50584;29.058;-110.966;2023-09-18T04:24:11;6.97;;;1.83;;
64244;SDS011;50584;29.058;-110.966;2023-09-18T04:26:37;3.92;;;1.95;;
64244;SDS011;50584;29.058;-110.966;2023-09-18T04:29:05;11.45;;;1.80;;
64244;SDS011;50584;29.058;-110.966;2023-09-18T04:31:31;11.38;;;2.13;;
64244;SDS011;50584;29.058;-110.966;2023-09-18T04:33:56;9.02;;;1.50;;
64244;SDS011;50584;29.058;-110.966;2023-09-18T04:36:22;12.73;;;2.45;;
64244;SDS011;50584;29.058;-110.966;2023-09-18T04:38:49;7.03;;;1.58;;
64244;SDS011;50584;29.058;-110.966;2023-09-18T04:41:15;4.63;;;1.60;;
64244;SDS011;50584;29.058;-110.966;2023-09-18T04:43:41;6.25;;;2.45;;
64244;SDS011;50584;29.058;-110.966;2023-09-18T04:46:09;5.80;;;1.80;;
64244;SDS011;50584;29.058;-110.966;2023-09-18T04:48:35;7.40;;;2.10;;
64244;SDS011;50584;29.058;-110.966;2023-09-18T04:51:01;7.78;;;1.85;;
64244;SDS011;50584;29.058;-110.966;2023-09-18T04:53:29;4.75;;;1.75;;
64244;SDS011;50584;29.058;-110.966;2023-09-18T04:55:55;4.80;;;1.63;;
64244;SDS011;50584;29.058;-110.966;2023-09-18T04:58:20;7.30;;;1.63;;
64244;SDS011;50584;29.058;-110.966;2023-09-18T05:00:47;6.50;;;1.38;;
64244;SDS011;50584;29.058;-110.966;2023-09-18T05:03:18;3.08;;;1.50;;
64244;SDS011;50584;29.058;-110.966;2023-09-18T05:05:44;6.95;;;2.40;;
64244;SDS011;50584;29.058;-110.966;2023-09-18T05:08:10;7.03;;;2.08;;
64244;SDS011;50584;29.058;-110.966;2023-09-18T05:10:36;7.88;;;1.70;;
64244;SDS011;50584;29.058;-110.966;2023-09-18T05:13:02;5.10;;;1.80;;
64244;SDS011;50584;29.058;-110.966;2023-09-18T05:15:28;2.92;;;1.50;;
64244;SDS011;50584;29.058;-110.966;2023-09-18T05:17:58;8.15;;;1.60;;
64244;SDS011;50584;29.058;-110.966;2023-09-18T05:20:24;6.78;;;1.73;;
64244;SDS011;50584;29.058;-110.966;2023-09-18T05:22:51;8.13;;;2.05;;
64244;SDS011;50584;29.058;-110.966;2023-09-18T05:25:23;10.95;;;2.30;;
64244;SDS011;50584;29.058;-110.966;2023-09-18T05:30:23;4.57;;;1.70;;
64244;SDS011;50584;29.058;-110.966;2023-09-18T05:32:49;4.90;;;1.60;;
64244;SDS011;50584;29.058;-110.966;2023-09-18T05:35:15;1.83;;;1.50;;
64244;SDS011;50584;29.058;-110.966;2023-09-18T05:37:42;5.10;;;1.85;;
64244;SDS011;50584;29.058;-110.966;2023-09-18T05:40:09;4.70;;;1.42;;
64244;SDS011;50584;29.058;-110.966;2023-09-18T05:42:36;2.33;;;1.50;;
64244;SDS011;50584;29.058;-110.966;2023-09-18T05:45:02;4.28;;;1.55;;
64244;SDS011;50584;29.058;-110.966;2023-09-18T05:47:30;3.38;;;1.40;;
64244;SDS011;50584;29.058;-110.966;2023-09-18T05:49:57;4.43;;;1.70;;
64244;SDS011;50584;29.058;-110.966;2023-09-18T05:52:22;8.60;;;1.55;;
64244;SDS011;50584;29.058;-110.966;2023-09-18T05:54:49;3.13;;;1.38;;
64244;SDS011;50584;29.058;-110.966;2023-09-18T05:57:15;2.55;;;1.60;;
64244;SDS011;50584;29.058;-110.966;2023-09-18T05:59:42;8.18;;;1.83;;
64244;SDS011;50584;29.058;-110.966;2023-09-18T06:02:10;2.17;;;1.23;;
64244;SDS011;50584;29.058;-110.966;2023-09-18T06:04:36;7.20;;;1.50;;
64244;SDS011;50584;29.058;-110.966;2023-09-18T06:07:05;9.35;;;1.67;;
64244;SDS011;50584;29.058;-110.966;2023-09-18T06:09:31;4.72;;;1.40;;
64244;SDS011;50584;29.058;-110.966;2023-09-18T06:11:56;9.05;;;1.70;;
64244;SDS011;50584;29.058;-110.966;2023-09-18T06:14:22;6.50;;;1.73;;
64244;SDS011;50584;29.058;-110.966;2023-09-18T06:16:48;6.97;;;2.97;;
64244;SDS011;50584;29.058;-110.966;2023-09-18T06:19:15;7.25;;;1.90;;
64244;SDS011;50584;29.058;-110.966;2023-09-18T06:21:42;11.88;;;2.08;;
64244;SDS011;50584;29.058;-110.966;2023-09-18T06:24:08;7.18;;;2.00;;
64244;SDS011;50584;29.058;-110.966;2023-09-18T06:26:34;3.35;;;2.10;;
64244;SDS011;50584;29.058;-110.966;2023-09-18T06:29:01;8.80;;;1.80;;
64244;SDS011;50584;29.058;-110.966;2023-09-18T06:31:27;4.18;;;1.65;;
64244;SDS011;50584;29.058;-110.966;2023-09-18T06:33:53;3.22;;;1.60;;
64244;SDS011;50584;29.058;-110.966;2023-09-18T06:36:19;8.60;;;2.30;;
64244;SDS011;50584;29.058;-110.966;2023-09-18T06:38:46;3.38;;;2.10;;
64244;SDS011;50584;29.058;-110.966;2023-09-18T06:41:12;8.50;;;2.17;;
64244;SDS011;50584;29.058;-110.966;2023-09-18T06:43:37;7.05;;;2.25;;
64244;SDS011;50584;29.058;-110.966;2023-09-18T06:46:03;5.82;;;1.92;;
64244;SDS011;50584;29.058;-110.966;2023-09-18T06:48:29;6.18;;;2.17;;
64244;SDS011;50584;29.058;-110.966;2023-09-18T06:50:58;7.40;;;2.05;;
64244;SDS011;50584;29.058;-110.966;2023-09-18T06:53:26;5.25;;;2.10;;
64244;SDS011;50584;29.058;-110.966;2023-09-18T06:55:53;7.72;;;2.33;;
64244;SDS011;50584;29.058;-110.966;2023-09-18T06:58:19;6.72;;;2.78;;
64244;SDS011;50584;29.058;-110.966;2023-09-18T07:00:45;10.68;;;2.50;;
64244;SDS011;50584;29.058;-110.966;2023-09-18T07:03:10;7.82;;;2.47;;
64244;SDS011;50584;29.058;-110.966;2023-09-18T07:05:37;8.27;;;2.22;;
64244;SDS011;50584;29.058;-110.966;2023-09-18T07:08:02;10.10;;;2.58;;
64244;SDS011;50584;29.058;-110.966;2023-09-18T07:10:30;7.72;;;2.33;;
64244;SDS011;50584;29.058;-110.966;2023-09-18T07:12:58;4.95;;;2.58;;
64244;SDS011;50584;29.058;-110.966;2023-09-18T07:15:24;6.80;;;2.50;;
64244;SDS011;50584;29.058;-110.966;2023-09-18T07:17:49;4.03;;;2.72;;
64244;SDS011;50584;29.058;-110.966;2023-09-18T07:20:15;5.90;;;2.10;;
64244;SDS011;50584;29.058;-110.966;2023-09-18T07:22:45;7.90;;;2.75;;
64244;SDS011;50584;29.058;-110.966;2023-09-18T07:25:12;2.85;;;2.63;;
64244;SDS011;50584;29.058;-110.966;2023-09-18T07:27:38;3.40;;;2.67;;
64244;SDS011;50584;29.058;-110.966;2023-09-18T07:30:12;8.32;;;2.58;;
64244;SDS011;50584;29.058;-110.966;2023-09-18T07:32:41;7.85;;;2.75;;
64244;SDS011;50584;29.058;-110.966;2023-09-18T07:35:08;6.22;;;2.25;;
64244;SDS011;50584;29.058;-110.966;2023-09-18T07:37:34;8.25;;;2.40;;
64244;SDS011;50584;29.058;-110.966;2023-09-18T07:40:01;4.40;;;2.40;;
64244;SDS011;50584;29.058;-110.966;2023-09-18T07:42:27;3.00;;;2.30;;
64244;SDS011;50584;29.058;-110.966;2023-09-18T07:44:53;2.55;;;2.17;;
64244;SDS011;50584;29.058;-110.966;2023-09-18T07:47:20;3.72;;;2.22;;
64244;SDS011;50584;29.058;-110.966;2023-09-18T07:49:46;13.02;;;2.50;;
64244;SDS011;50584;29.058;-110.966;2023-09-18T07:52:12;3.83;;;2.10;;
64244;SDS011;50584;29.058;-110.966;2023-09-18T07:54:38;4.57;;;2.40;;
64244;SDS011;50584;29.058;-110.966;2023-09-18T07:57:04;8.55;;;3.58;;
64244;SDS011;50584;29.058;-110.966;2023-09-18T07:59:35;14.63;;;3.42;;
64244;SDS011;50584;29.058;-110.966;2023-09-18T08:02:01;9.90;;;4.85;;
64244;SDS011;50584;29.058;-110.966;2023-09-18T08:04:27;6.53;;;5.40;;
64244;SDS011;50584;29.058;-110.966;2023-09-18T08:06:53;6.95;;;5.10;;
64244;SDS011;50584;29.058;-110.966;2023-09-18T08:09:19;9.50;;;4.85;;
64244;SDS011;50584;29.058;-110.966;2023-09-18T08:11:44;7.93;;;4.30;;
64244;SDS011;50584;29.058;-110.966;2023-09-18T08:14:10;7.32;;;3.75;;
64244;SDS011;50584;29.058;-110.966;2023-09-18T08:16:39;7.32;;;2.70;;
64244;SDS011;50584;29.058;-110.966;2023-09-18T08:19:05;3.92;;;2.58;;
64244;SDS011;50584;29.058;-110.966;2023-09-18T08:21:32;3.40;;;2.08;;
64244;SDS011;50584;29.058;-110.966;2023-09-18T08:23:58;2.83;;;2.17;;
64244;SDS011;50584;29.058;-110.966;2023-09-18T08:26:24;4.25;;;2.00;;
64244;SDS011;50584;29.058;-110.966;2023-09-18T08:28:50;4.82;;;2.10;;
64244;SDS011;50584;29.058;-110.966;2023-09-18T08:31:16;4.85;;;2.03;;
64244;SDS011;50584;29.058;-110.966;2023-09-18T08:33:42;8.07;;;2.25;;
64244;SDS011;50584;29.058;-110.966;2023-09-18T08:36:08;1.92;;;1.80;;
64244;SDS011;50584;29.058;-110.966;2023-09-18T08:38:34;3.28;;;1.70;;
64244;SDS011;50584;29.058;-110.966;2023-09-18T08:41:00;2.47;;;1.80;;
64244;SDS011;50584;29.058;-110.966;2023-09-18T08:43:28;3.38;;;1.88;;
64244;SDS011;50584;29.058;-110.966;2023-09-18T08:45:55;5.00;;;1.95;;
64244;SDS011;50584;29.058;-110.966;2023-09-18T08:48:26;3.25;;;1.67;;
64244;SDS011;50584;29.058;-110.966;2023-09-18T08:51:00;1.75;;;1.63;;
64244;SDS011;50584;29.058;-110.966;2023-09-18T08:53:27;5.13;;;1.90;;
64244;SDS011;50584;29.058;-110.966;2023-09-18T08:55:54;2.28;;;1.83;;
64244;SDS011;50584;29.058;-110.966;2023-09-18T08:58:24;4.50;;;2.00;;
64244;SDS011;50584;29.058;-110.966;2023-09-18T09:00:50;3.55;;;1.60;;
64244;SDS011;50584;29.058;-110.966;2023-09-18T09:03:16;1.70;;;1.60;;
64244;SDS011;50584;29.058;-110.966;2023-09-18T09:05:42;3.00;;;1.63;;
64244;SDS011;50584;29.058;-110.966;2023-09-18T09:08:08;3.33;;;1.95;;
64244;SDS011;50584;29.058;-110.966;2023-09-18T09:10:33;2.30;;;2.17;;
64244;SDS011;50584;29.058;-110.966;2023-09-18T09:12:59;3.08;;;2.10;;
64244;SDS011;50584;29.058;-110.966;2023-09-18T09:15:27;1.73;;;1.40;;
64244;SDS011;50584;29.058;-110.966;2023-09-18T09:18:03;1.70;;;1.60;;
64244;SDS011;50584;29.058;-110.966;2023-09-18T09:20:30;2.35;;;1.85;;
64244;SDS011;50584;29.058;-110.966;2023-09-18T09:23:00;2.47;;;1.70;;
64244;SDS011;50584;29.058;-110.966;2023-09-18T09:25:27;3.25;;;1.70;;
64244;SDS011;50584;29.058;-110.966;2023-09-18T09:27:54;1.98;;;1.75;;
64244;SDS011;50584;29.058;-110.966;2023-09-18T09:30:21;2.03;;;1.60;;
64244;SDS011;50584;29.058;-110.966;2023-09-18T09:32:50;2.55;;;1.73;;
64244;SDS011;50584;29.058;-110.966;2023-09-18T09:35:35;10.43;;;2.53;;
64244;SDS011;50584;29.058;-110.966;2023-09-18T09:38:08;13.15;;;3.00;;
64244;SDS011;50584;29.058;-110.966;2023-09-18T09:40:34;8.23;;;2.45;;
64244;SDS011;50584;29.058;-110.966;2023-09-18T09:43:03;4.97;;;2.25;;
64244;SDS011;50584;29.058;-110.966;2023-09-18T09:45:30;8.27;;;2.47;;
64244;SDS011;50584;29.058;-110.966;2023-09-18T09:48:00;4.88;;;2.53;;
64244;SDS011;50584;29.058;-110.966;2023-09-18T09:50:26;3.45;;;2.50;;
64244;SDS011;50584;29.058;-110.966;2023-09-18T09:52:53;7.82;;;2.42;;
64244;SDS011;50584;29.058;-110.966;2023-09-18T09:57:53;9.00;;;2.30;;
64244;SDS011;50584;29.058;-110.966;2023-09-18T10:00:22;5.10;;;2.40;;
64244;SDS011;50584;29.058;-110.966;2023-09-18T10:02:56;8.85;;;2.45;;
64244;SDS011;50584;29.058;-110.966;2023-09-18T10:05:27;10.93;;;2.58;;
64244;SDS011;50584;29.058;-110.966;2023-09-18T10:07:56;8.32;;;2.17;;
64244;SDS011;50584;29.058;-110.966;2023-09-18T10:10:24;11.07;;;2.22;;
64244;SDS011;50584;29.058;-110.966;2023-09-18T10:12:51;6.65;;;2.13;;
64244;SDS011;50584;29.058;-110.966;2023-09-18T10:15:18;3.92;;;2.03;;
64244;SDS011;50584;29.058;-110.966;2023-09-18T10:17:45;4.05;;;2.15;;
64244;SDS011;50584;29.058;-110.966;2023-09-18T10:20:14;7.72;;;2.55;;
64244;SDS011;50584;29.058;-110.966;2023-09-18T10:22:42;11.35;;;2.72;;
64244;SDS011;50584;29.058;-110.966;2023-09-18T10:25:21;9.07;;;2.53;;
64244;SDS011;50584;29.058;-110.966;2023-09-18T10:27:49;7.13;;;2.42;;
64244;SDS011;50584;29.058;-110.966;2023-09-18T10:30:18;3.25;;;1.98;;
64244;SDS011;50584;29.058;-110.966;2023-09-18T10:32:44;2.75;;;2.15;;
64244;SDS011;50584;29.058;-110.966;2023-09-18T10:35:13;4.45;;;2.13;;
64244;SDS011;50584;29.058;-110.966;2023-09-18T10:37:41;5.30;;;2.00;;
64244;SDS011;50584;29.058;-110.966;2023-09-18T10:40:08;10.45;;;2.55;;
64244;SDS011;50584;29.058;-110.966;2023-09-18T10:42:34;4.13;;;2.13;;
64244;SDS011;50584;29.058;-110.966;2023-09-18T10:45:00;2.42;;;1.80;;
64244;SDS011;50584;29.058;-110.966;2023-09-18T10:47:27;3.08;;;1.90;;
64244;SDS011;50584;29.058;-110.966;2023-09-18T10:49:53;3.58;;;2.28;;
64244;SDS011;50584;29.058;-110.966;2023-09-18T10:52:19;3.97;;;2.00;;
64244;SDS011;50584;29.058;-110.966;2023-09-18T10:54:45;10.65;;;2.40;;
64244;SDS011;50584;29.058;-110.966;2023-09-18T10:57:11;4.95;;;2.38;;
64244;SDS011;50584;29.058;-110.966;2023-09-18T10:59:46;5.38;;;2.20;;
64244;SDS011;50584;29.058;-110.966;2023-09-18T11:02:15;3.45;;;2.30;;
64244;SDS011;50584;29.058;-110.966;2023-09-18T11:04:42;3.08;;;1.95;;
64244;SDS011;50584;29.058;-110.966;2023-09-18T11:07:08;3.28;;;2.15;;
64244;SDS011;50584;29.058;-110.966;2023-09-18T11:09:44;5.13;;;2.30;;
64244;SDS011;50584;29.058;-110.966;2023-09-18T11:12:10;2.65;;;2.00;;
64244;SDS011;50584;29.058;-110.966;2023-09-18T11:22:30;2.20;;;2.00;;
64244;SDS011;50584;29.058;-110.966;2023-09-18T11:25:28;6.05;;;2.00;;
64244;SDS011;50584;29.058;-110.966;2023-09-18T11:27:54;7.18;;;1.92;;
64244;SDS011;50584;29.058;-110.966;2023-09-18T11:30:23;2.65;;;1.73;;
64244;SDS011;50584;29.058;-110.966;2023-09-18T11:32:50;3.40;;;1.75;;
64244;SDS011;50584;29.058;-110.966;2023-09-18T11:35:17;1.95;;;1.85;;
64244;SDS011;50584;29.058;-110.966;2023-09-18T11:37:44;5.10;;;2.00;;
64244;SDS011;50584;29.058;-110.966;2023-09-18T11:40:31;2.13;;;1.70;;
64244;SDS011;50584;29.058;-110.966;2023-09-18T11:45:43;5.55;;;2.65;;
64244;SDS011;50584;29.058;-110.966;2023-09-18T11:48:09;4.18;;;2.00;;
64244;SDS011;50584;29.058;-110.966;2023-09-18T11:50:37;6.93;;;2.28;;
64244;SDS011;50584;29.058;-110.966;2023-09-18T11:53:03;3.90;;;2.20;;
64244;SDS011;50584;29.058;-110.966;2023-09-18T11:55:29;12.15;;;2.50;;
64244;SDS011;50584;29.058;-110.966;2023-09-18T11:57:55;11.90;;;2.60;;
64244;SDS011;50584;29.058;-110.966;2023-09-18T12:00:23;7.60;;;2.78;;
64244;SDS011;50584;29.058;-110.966;2023-09-18T12:02:50;15.52;;;2.83;;
64244;SDS011;50584;29.058;-110.966;2023-09-18T12:05:17;13.07;;;2.92;;
64244;SDS011;50584;29.058;-110.966;2023-09-18T12:07:44;8.25;;;2.33;;
64244;SDS011;50584;29.058;-110.966;2023-09-18T12:10:11;10.18;;;2.83;;
64244;SDS011;50584;29.058;-110.966;2023-09-18T12:12:37;10.52;;;3.05;;
64244;SDS011;50584;29.058;-110.966;2023-09-18T12:15:03;11.27;;;3.38;;
64244;SDS011;50584;29.058;-110.966;2023-09-18T12:17:29;7.90;;;3.90;;
64244;SDS011;50584;29.058;-110.966;2023-09-18T12:19:55;13.07;;;4.22;;
64244;SDS011;50584;29.058;-110.966;2023-09-18T12:22:25;27.70;;;4.88;;
64244;SDS011;50584;29.058;-110.966;2023-09-18T12:24:51;38.90;;;4.67;;
64244;SDS011;50584;29.058;-110.966;2023-09-18T12:27:16;29.98;;;6.95;;
64244;SDS011;50584;29.058;-110.966;2023-09-18T12:29:43;49.13;;;7.65;;
64244;SDS011;50584;29.058;-110.966;2023-09-18T12:32:09;34.13;;;6.45;;
64244;SDS011;50584;29.058;-110.966;2023-09-18T12:34:40;62.15;;;7.22;;
64244;SDS011;50584;29.058;-110.966;2023-09-18T12:37:07;33.72;;;6.22;;
64244;SDS011;50584;29.058;-110.966;2023-09-18T12:39:35;26.95;;;6.47;;
64244;SDS011;50584;29.058;-110.966;2023-09-18T12:42:00;18.70;;;6.05;;
64244;SDS011;50584;29.058;-110.966;2023-09-18T12:44:26;23.27;;;5.35;;
64244;SDS011;50584;29.058;-110.966;2023-09-18T12:46:52;19.08;;;5.32;;
64244;SDS011;50584;29.058;-110.966;2023-09-18T12:49:18;7.05;;;4.57;;
64244;SDS011;50584;29.058;-110.966;2023-09-18T12:51:53;16.30;;;4.35;;
64244;SDS011;50584;29.058;-110.966;2023-09-18T12:54:19;13.05;;;4.25;;
64244;SDS011;50584;29.058;-110.966;2023-09-18T12:56:45;9.95;;;3.47;;
64244;SDS011;50584;29.058;-110.966;2023-09-18T12:59:11;9.65;;;3.20;;
64244;SDS011;50584;29.058;-110.966;2023-09-18T13:01:38;9.73;;;3.20;;
64244;SDS011;50584;29.058;-110.966;2023-09-18T13:04:04;3.05;;;2.40;;
64244;SDS011;50584;29.058;-110.966;2023-09-18T13:06:31;8.38;;;2.80;;
64244;SDS011;50584;29.058;-110.966;2023-09-18T13:09:14;11.88;;;3.40;;
64244;SDS011;50584;29.058;-110.966;2023-09-18T13:11:53;6.30;;;2.60;;
64244;SDS011;50584;29.058;-110.966;2023-09-18T13:14:19;9.82;;;2.78;;
64244;SDS011;50584;29.058;-110.966;2023-09-18T13:16:45;3.70;;;2.63;;
64244;SDS011;50584;29.058;-110.966;2023-09-18T13:19:11;13.27;;;2.70;;
64244;SDS011;50584;29.058;-110.966;2023-09-18T13:21:36;4.72;;;2.50;;
64244;SDS011;50584;29.058;-110.966;2023-09-18T13:24:06;5.45;;;2.67;;
64244;SDS011;50584;29.058;-110.966;2023-09-18T13:26:32;6.05;;;2.50;;
64244;SDS011;50584;29.058;-110.966;2023-09-18T13:28:58;9.10;;;2.65;;
64244;SDS011;50584;29.058;-110.966;2023-09-18T13:31:24;5.10;;;2.40;;
64244;SDS011;50584;29.058;-110.966;2023-09-18T13:33:50;6.15;;;2.50;;
64244;SDS011;50584;29.058;-110.966;2023-09-18T13:36:17;4.35;;;2.40;;
64244;SDS011;50584;29.058;-110.966;2023-09-18T13:38:43;12.18;;;2.60;;
64244;SDS011;50584;29.058;-110.966;2023-09-18T13:41:09;9.10;;;2.40;;
64244;SDS011;50584;29.058;-110.966;2023-09-18T13:43:35;13.70;;;2.70;;
64244;SDS011;50584;29.058;-110.966;2023-09-18T13:46:01;15.07;;;2.88;;
64244;SDS011;50584;29.058;-110.966;2023-09-18T13:48:29;14.70;;;3.10;;
64244;SDS011;50584;29.058;-110.966;2023-09-18T13:50:55;12.45;;;2.58;;
64244;SDS011;50584;29.058;-110.966;2023-09-18T13:53:21;19.58;;;3.22;;
64244;SDS011;50584;29.058;-110.966;2023-09-18T13:55:47;32.33;;;3.42;;
64244;SDS011;50584;29.058;-110.966;2023-09-18T13:58:13;68.53;;;5.28;;
64244;SDS011;50584;29.058;-110.966;2023-09-18T14:00:39;17.17;;;3.00;;
64244;SDS011;50584;29.058;-110.966;2023-09-18T14:03:04;33.20;;;3.22;;
64244;SDS011;50584;29.058;-110.966;2023-09-18T14:05:30;85.20;;;25.02;;
64244;SDS011;50584;29.058;-110.966;2023-09-18T14:07:58;169.68;;;57.53;;
64244;SDS011;50584;29.058;-110.966;2023-09-18T14:10:28;108.55;;;53.10;;
64244;SDS011;50584;29.058;-110.966;2023-09-18T14:12:54;97.72;;;51.47;;
64244;SDS011;50584;29.058;-110.966;2023-09-18T14:15:20;108.60;;;45.85;;
64244;SDS011;50584;29.058;-110.966;2023-09-18T14:17:46;85.80;;;43.90;;
64244;SDS011;50584;29.058;-110.966;2023-09-18T14:20:12;28.98;;;15.70;;
64244;SDS011;50584;29.058;-110.966;2023-09-18T14:22:38;12.73;;;5.15;;